Detall de PIREP

Printer-friendly versionPDF version

[2012/02/24 18:52:00]
Flight IATA:CT2104
Pilot Number:042
Company ICAO:CAT
Aircraft Type:B738/F
PAX:0
Departing Airport: LEVC
Destination Airport: LEBB
Alternate Airport:LEMD
Online: VATSIM
Route:CENTA A33 CJN R10 PPN G23 CEGAM
Flight Level:F330
No Slew and time accel
No pause
Crash detect
Detect pilot in Cockpit between each 30 and 45 minutes
18:52 Zero fuel Weight: 91300 Lbs, Fuel Weight: 46058 Lbs
18:52 VATSIM:LEVC 241830Z VRB02KT 9999 FEW040 14/05 Q1026 NOSIG
18:52 VATSIM:LEBB 241830Z VRB02KT CAVOK 11/04 Q1028 NOSIG
18:53 VOICE CATALONIAN
19:00 Parking Brakes off
19:08 Take-off
19:08 Take off Weight: 136484 Lbs
19:08 Wind: 003º @ 002 Knots Heading: 114º
19:08 POS N39º 29´ 22´´ W000º 28´ 55´´
19:08 Gear Up: 175 Knots
19:08 Flaps:5 at 175 Knots
19:09 Flaps:4 at 185 Knots
19:09 Flaps:3 at 188 Knots
19:09 Flaps:2 at 186 Knots
19:10 Flaps:1 at 180 Knots
19:11 Flaps:0 at 214 Knots
19:23 Wind:098º@050 Knots Heading: 302º Ground Speed: 482 Knots Altitude 26597 ft
19:27 TOC
19:27 Fuel Weight: 41545 Lb
19:38 Wind:094º@057 Knots Heading: 032º Ground Speed: 427 Knots Altitude 33359 ft
19:51 TOD
19:51 Fuel Weight: 39143 Lb
19:53 Wind:105º@028 Knots Heading: 303º Ground Speed: 463 Knots Altitude 29862 ft
20:08 Wind:036º@003 Knots Heading: 158º Ground Speed: 234 Knots Altitude 6259 ft
20:13 Flaps:1 at 178 Knots
20:13 Flaps:2 at 178 Knots
20:13 Flaps:3 at 175 Knots
20:13 Flaps:4 at 168 Knots
20:13 Flaps:5 at 152 Knots
20:13 Flaps:6 at 151 Knots
20:13 Gear Down: 151 Knots
20:13 Flaps:8 at 151 Knots
20:18 TouchDown:Rate -432 ft/min Speed: 132 Knots
20:19 VATSIM:LEBB 242000Z VRB01KT CAVOK 09/04 Q1028 NOSIG
20:19 Land
20:19 Wind:004º@001 Knots
20:19 Heading: 297º
20:19 Flight Duration: 01:11
20:19 Landing Weight: 128868 Lbs
20:19 POS N43º 18´ 11´´ W002º 54´ 57´´
20:21 Parking brakes on
20:21 Block to Block Duration: 01:21
20:21 Final Fuel: 37392 Lbls
20:21 Spent Fuel: 8666 Lbls
20:21 Flight Length: 426 NM
20:21 TOD Land Length: 128 NM

Exportar CSV

Powered by Drupal - Modified by Danger4k